sensor_id;sensor_type;location;lat;lon;timestamp;P1;durP1;ratioP1;P2;durP2;ratioP2
2001;SDS011;1003;48.002;7.788;2023-03-08T00:00:00;16.20;;;8.87;;
2001;SDS011;1003;48.002;7.788;2023-03-08T00:02:30;17.63;;;8.77;;
2001;SDS011;1003;48.002;7.788;2023-03-08T00:04:57;16.33;;;7.70;;
2001;SDS011;1003;48.002;7.788;2023-03-08T00:07:24;15.83;;;7.93;;
2001;SDS011;1003;48.002;7.788;2023-03-08T00:09:51;15.53;;;8.03;;
2001;SDS011;1003;48.002;7.788;2023-03-08T00:12:20;15.40;;;8.10;;
2001;SDS011;1003;48.002;7.788;2023-03-08T00:14:47;15.43;;;7.77;;
2001;SDS011;1003;48.002;7.788;2023-03-08T00:17:14;16.73;;;8.13;;
2001;SDS011;1003;48.002;7.788;2023-03-08T00:19:42;16.67;;;8.47;;
2001;SDS011;1003;48.002;7.788;2023-03-08T00:22:10;18.80;;;8.70;;
2001;SDS011;1003;48.002;7.788;2023-03-08T00:24:37;15.23;;;8.40;;
2001;SDS011;1003;48.002;7.788;2023-03-08T00:27:04;16.20;;;7.60;;
2001;SDS011;1003;48.002;7.788;2023-03-08T00:29:33;14.87;;;7.73;;
2001;SDS011;1003;48.002;7.788;2023-03-08T00:32:00;14.97;;;8.03;;
2001;SDS011;1003;48.002;7.788;2023-03-08T00:49:10;14.27;;;7.20;;
2001;SDS011;1003;48.002;7.788;2023-03-08T00:51:38;14.73;;;7.63;;
2001;SDS011;1003;48.002;7.788;2023-03-08T00:54:05;16.33;;;8.20;;
2001;SDS011;1003;48.002;7.788;2023-03-08T00:56:32;14.80;;;7.67;;
2001;SDS011;1003;48.002;7.788;2023-03-08T00:58:59;11.80;;;6.97;;
2001;SDS011;1003;48.002;7.788;2023-03-08T01:01:26;14.07;;;7.57;;
2001;SDS011;1003;48.002;7.788;2023-03-08T01:03:53;12.43;;;6.67;;
2001;SDS011;1003;48.002;7.788;2023-03-08T01:06:21;13.90;;;7.07;;
2001;SDS011;1003;48.002;7.788;2023-03-08T01:08:48;13.70;;;7.10;;
2001;SDS011;1003;48.002;7.788;2023-03-08T01:11:17;18.67;;;8.23;;
2001;SDS011;1003;48.002;7.788;2023-03-08T01:13:46;13.67;;;7.13;;
2001;SDS011;1003;48.002;7.788;2023-03-08T01:16:15;11.77;;;6.10;;
2001;SDS011;1003;48.002;7.788;2023-03-08T01:18:45;13.40;;;6.70;;
2001;SDS011;1003;48.002;7.788;2023-03-08T01:21:13;13.20;;;6.43;;
2001;SDS011;1003;48.002;7.788;2023-03-08T01:23:42;14.27;;;6.90;;
2001;SDS011;1003;48.002;7.788;2023-03-08T01:26:10;14.47;;;7.03;;
2001;SDS011;1003;48.002;7.788;2023-03-08T01:28:40;13.30;;;6.63;;
2001;SDS011;1003;48.002;7.788;2023-03-08T01:31:08;12.40;;;6.43;;
2001;SDS011;1003;48.002;7.788;2023-03-08T01:33:39;10.13;;;5.90;;
2001;SDS011;1003;48.002;7.788;2023-03-08T01:36:08;11.23;;;6.17;;
2001;SDS011;1003;48.002;7.788;2023-03-08T01:38:39;14.00;;;6.40;;
2001;SDS011;1003;48.002;7.788;2023-03-08T01:41:11;12.50;;;6.10;;
2001;SDS011;1003;48.002;7.788;2023-03-08T01:43:41;10.83;;;6.17;;
2001;SDS011;1003;48.002;7.788;2023-03-08T01:48:57;12.13;;;6.50;;
2001;SDS011;1003;48.002;7.788;2023-03-08T01:51:32;9.50;;;5.50;;
2001;SDS011;1003;48.002;7.788;2023-03-08T01:54:06;11.33;;;5.60;;
2001;SDS011;1003;48.002;7.788;2023-03-08T01:56:39;10.73;;;5.77;;
2001;SDS011;1003;48.002;7.788;2023-03-08T01:59:09;11.17;;;6.03;;
2001;SDS011;1003;48.002;7.788;2023-03-08T02:01:37;14.07;;;6.40;;
2001;SDS011;1003;48.002;7.788;2023-03-08T02:04:05;11.67;;;5.80;;
2001;SDS011;1003;48.002;7.788;2023-03-08T02:06:34;13.43;;;6.97;;
2001;SDS011;1003;48.002;7.788;2023-03-08T02:09:01;14.43;;;6.83;;
2001;SDS011;1003;48.002;7.788;2023-03-08T02:11:29;13.53;;;6.57;;
2001;SDS011;1003;48.002;7.788;2023-03-08T02:14:00;13.33;;;6.47;;
2001;SDS011;1003;48.002;7.788;2023-03-08T02:16:28;12.57;;;6.50;;
2001;SDS011;1003;48.002;7.788;2023-03-08T02:18:56;14.97;;;7.30;;
2001;SDS011;1003;48.002;7.788;2023-03-08T02:21:26;14.90;;;7.23;;
2001;SDS011;1003;48.002;7.788;2023-03-08T02:24:01;14.90;;;7.17;;
2001;SDS011;1003;48.002;7.788;2023-03-08T02:26:31;13.43;;;6.43;;
2001;SDS011;1003;48.002;7.788;2023-03-08T02:28:59;12.17;;;5.97;;
2001;SDS011;1003;48.002;7.788;2023-03-08T02:31:26;13.47;;;6.60;;
2001;SDS011;1003;48.002;7.788;2023-03-08T02:33:53;14.17;;;6.90;;
2001;SDS011;1003;48.002;7.788;2023-03-08T02:36:20;13.17;;;6.27;;
2001;SDS011;1003;48.002;7.788;2023-03-08T02:38:47;12.67;;;5.87;;
2001;SDS011;1003;48.002;7.788;2023-03-08T02:41:15;13.83;;;6.57;;
2001;SDS011;1003;48.002;7.788;2023-03-08T02:43:42;11.90;;;6.50;;
2001;SDS011;1003;48.002;7.788;2023-03-08T02:46:09;13.20;;;6.43;;
2001;SDS011;1003;48.002;7.788;2023-03-08T02:48:37;12.80;;;6.13;;
2001;SDS011;1003;48.002;7.788;2023-03-08T02:51:04;12.27;;;6.43;;
2001;SDS011;1003;48.002;7.788;2023-03-08T02:53:31;10.27;;;5.70;;
2001;SDS011;1003;48.002;7.788;2023-03-08T02:55:58;12.00;;;6.77;;
2001;SDS011;1003;48.002;7.788;2023-03-08T02:58:27;14.00;;;6.80;;
2001;SDS011;1003;48.002;7.788;2023-03-08T03:00:55;12.73;;;6.07;;
2001;SDS011;1003;48.002;7.788;2023-03-08T03:03:22;11.10;;;5.80;;
2001;SDS011;1003;48.002;7.788;2023-03-08T03:05:49;14.97;;;7.30;;
2001;SDS011;1003;48.002;7.788;2023-03-08T03:08:16;11.63;;;6.30;;
2001;SDS011;1003;48.002;7.788;2023-03-08T03:10:43;13.53;;;7.07;;
2001;SDS011;1003;48.002;7.788;2023-03-08T03:13:10;13.70;;;6.53;;
2001;SDS011;1003;48.002;7.788;2023-03-08T03:15:38;12.67;;;6.53;;
2001;SDS011;1003;48.002;7.788;2023-03-08T03:18:05;12.60;;;6.57;;
2001;SDS011;1003;48.002;7.788;2023-03-08T03:20:33;12.63;;;6.53;;
2001;SDS011;1003;48.002;7.788;2023-03-08T03:23:00;11.13;;;7.00;;
2001;SDS011;1003;48.002;7.788;2023-03-08T03:25:27;15.60;;;6.93;;
2001;SDS011;1003;48.002;7.788;2023-03-08T03:27:54;11.20;;;6.83;;
2001;SDS011;1003;48.002;7.788;2023-03-08T03:30:21;13.10;;;6.77;;
2001;SDS011;1003;48.002;7.788;2023-03-08T03:32:50;14.90;;;7.60;;
2001;SDS011;1003;48.002;7.788;2023-03-08T03:35:17;10.77;;;6.27;;
2001;SDS011;1003;48.002;7.788;2023-03-08T03:37:44;10.63;;;6.27;;
2001;SDS011;1003;48.002;7.788;2023-03-08T03:40:11;12.63;;;7.20;;
2001;SDS011;1003;48.002;7.788;2023-03-08T03:42:39;15.10;;;7.27;;
2001;SDS011;1003;48.002;7.788;2023-03-08T03:45:07;13.30;;;7.07;;
2001;SDS011;1003;48.002;7.788;2023-03-08T03:47:35;13.97;;;6.90;;
2001;SDS011;1003;48.002;7.788;2023-03-08T03:50:03;13.73;;;7.10;;
2001;SDS011;1003;48.002;7.788;2023-03-08T03:52:31;12.37;;;6.37;;
2001;SDS011;1003;48.002;7.788;2023-03-08T03:54:58;12.57;;;7.17;;
2001;SDS011;1003;48.002;7.788;2023-03-08T03:57:25;12.03;;;6.03;;
2001;SDS011;1003;48.002;7.788;2023-03-08T03:59:52;11.73;;;6.60;;
2001;SDS011;1003;48.002;7.788;2023-03-08T04:02:19;10.23;;;5.90;;
2001;SDS011;1003;48.002;7.788;2023-03-08T04:04:47;12.53;;;6.67;;
2001;SDS011;1003;48.002;7.788;2023-03-08T04:07:16;11.60;;;6.40;;
2001;SDS011;1003;48.002;7.788;2023-03-08T04:09:43;12.07;;;6.40;;
2001;SDS011;1003;48.002;7.788;2023-03-08T04:12:11;12.90;;;6.90;;
2001;SDS011;1003;48.002;7.788;2023-03-08T04:14:39;12.73;;;6.50;;
2001;SDS011;1003;48.002;7.788;2023-03-08T04:17:06;10.57;;;6.10;;
2001;SDS011;1003;48.002;7.788;2023-03-08T04:19:33;10.47;;;6.10;;
2001;SDS011;1003;48.002;7.788;2023-03-08T04:22:00;12.30;;;6.70;;
2001;SDS011;1003;48.002;7.788;2023-03-08T04:24:29;13.67;;;7.00;;
2001;SDS011;1003;48.002;7.788;2023-03-08T04:26:56;10.77;;;6.60;;
2001;SDS011;1003;48.002;7.788;2023-03-08T04:29:23;9.27;;;6.17;;
2001;SDS011;1003;48.002;7.788;2023-03-08T04:31:50;10.83;;;6.30;;
2001;SDS011;1003;48.002;7.788;2023-03-08T04:34:19;12.13;;;6.40;;
2001;SDS011;1003;48.002;7.788;2023-03-08T04:36:46;12.63;;;6.73;;
2001;SDS011;1003;48.002;7.788;2023-03-08T04:39:13;11.00;;;6.60;;
2001;SDS011;1003;48.002;7.788;2023-03-08T04:41:42;12.70;;;6.33;;
2001;SDS011;1003;48.002;7.788;2023-03-08T04:44:09;12.50;;;6.27;;
2001;SDS011;1003;48.002;7.788;2023-03-08T04:46:36;9.53;;;6.03;;
2001;SDS011;1003;48.002;7.788;2023-03-08T04:49:03;11.20;;;6.27;;
2001;SDS011;1003;48.002;7.788;2023-03-08T04:51:30;12.37;;;6.60;;
2001;SDS011;1003;48.002;7.788;2023-03-08T04:53:57;11.33;;;6.10;;
2001;SDS011;1003;48.002;7.788;2023-03-08T04:56:24;12.83;;;6.17;;
2001;SDS011;1003;48.002;7.788;2023-03-08T04:58:53;11.23;;;6.73;;
2001;SDS011;1003;48.002;7.788;2023-03-08T05:01:20;9.87;;;6.20;;
2001;SDS011;1003;48.002;7.788;2023-03-08T05:03:48;11.60;;;6.10;;
2001;SDS011;1003;48.002;7.788;2023-03-08T05:06:17;12.83;;;6.73;;
2001;SDS011;1003;48.002;7.788;2023-03-08T05:08:45;13.70;;;6.87;;
2001;SDS011;1003;48.002;7.788;2023-03-08T05:11:14;12.50;;;6.37;;
2001;SDS011;1003;48.002;7.788;2023-03-08T05:13:44;14.30;;;7.33;;
2001;SDS011;1003;48.002;7.788;2023-03-08T05:16:13;15.30;;;6.77;;
2001;SDS011;1003;48.002;7.788;2023-03-08T05:18:40;14.03;;;7.00;;
2001;SDS011;1003;48.002;7.788;2023-03-08T05:21:09;13.77;;;7.17;;
2001;SDS011;1003;48.002;7.788;2023-03-08T05:23:42;10.90;;;6.53;;
2001;SDS011;1003;48.002;7.788;2023-03-08T05:26:11;12.77;;;6.40;;
2001;SDS011;1003;48.002;7.788;2023-03-08T05:28:41;11.67;;;6.87;;
2001;SDS011;1003;48.002;7.788;2023-03-08T05:31:09;15.20;;;8.17;;
2001;SDS011;1003;48.002;7.788;2023-03-08T05:33:40;14.13;;;6.60;;
2001;SDS011;1003;48.002;7.788;2023-03-08T05:36:11;11.50;;;6.33;;
2001;SDS011;1003;48.002;7.788;2023-03-08T05:38:40;12.23;;;5.80;;
2001;SDS011;1003;48.002;7.788;2023-03-08T05:41:10;11.77;;;6.03;;
2001;SDS011;1003;48.002;7.788;2023-03-08T05:43:41;11.97;;;6.03;;
2001;SDS011;1003;48.002;7.788;2023-03-08T05:46:10;13.63;;;6.43;;
2001;SDS011;1003;48.002;7.788;2023-03-08T05:48:41;11.97;;;6.17;;
2001;SDS011;1003;48.002;7.788;2023-03-08T05:51:08;9.80;;;6.20;;
2001;SDS011;1003;48.002;7.788;2023-03-08T05:53:38;9.60;;;5.77;;
2001;SDS011;1003;48.002;7.788;2023-03-08T05:56:06;10.73;;;6.17;;
2001;SDS011;1003;48.002;7.788;2023-03-08T05:58:35;11.90;;;6.30;;
2001;SDS011;1003;48.002;7.788;2023-03-08T06:01:10;12.03;;;6.80;;
2001;SDS011;1003;48.002;7.788;2023-03-08T06:03:44;11.23;;;6.23;;
2001;SDS011;1003;48.002;7.788;2023-03-08T06:06:14;14.37;;;7.37;;
2001;SDS011;1003;48.002;7.788;2023-03-08T06:08:42;10.93;;;6.90;;
2001;SDS011;1003;48.002;7.788;2023-03-08T06:11:09;9.47;;;6.40;;
2001;SDS011;1003;48.002;7.788;2023-03-08T06:13:37;13.83;;;7.67;;
2001;SDS011;1003;48.002;7.788;2023-03-08T06:16:04;18.33;;;11.93;;
2001;SDS011;1003;48.002;7.788;2023-03-08T06:18:34;14.57;;;8.23;;
2001;SDS011;1003;48.002;7.788;2023-03-08T06:21:05;15.27;;;7.07;;
2001;SDS011;1003;48.002;7.788;2023-03-08T06:23:36;10.67;;;6.20;;
2001;SDS011;1003;48.002;7.788;2023-03-08T06:26:04;13.00;;;7.07;;
2001;SDS011;1003;48.002;7.788;2023-03-08T06:28:32;12.37;;;6.93;;
2001;SDS011;1003;48.002;7.788;2023-03-08T06:31:02;11.77;;;6.83;;
2001;SDS011;1003;48.002;7.788;2023-03-08T06:33:50;11.03;;;6.27;;
2001;SDS011;1003;48.002;7.788;2023-03-08T06:36:19;9.80;;;6.23;;
2001;SDS011;1003;48.002;7.788;2023-03-08T06:38:47;10.57;;;5.47;;
2001;SDS011;1003;48.002;7.788;2023-03-08T06:41:16;10.90;;;6.27;;
2001;SDS011;1003;48.002;7.788;2023-03-08T06:43:45;11.33;;;5.93;;
2001;SDS011;1003;48.002;7.788;2023-03-08T06:46:13;10.67;;;5.70;;
2001;SDS011;1003;48.002;7.788;2023-03-08T06:48:43;10.53;;;5.90;;
2001;SDS011;1003;48.002;7.788;2023-03-08T06:51:11;13.53;;;7.20;;
2001;SDS011;1003;48.002;7.788;2023-03-08T06:53:39;13.27;;;6.87;;
2001;SDS011;1003;48.002;7.788;2023-03-08T06:56:07;14.67;;;7.87;;
2001;SDS011;1003;48.002;7.788;2023-03-08T06:58:38;11.60;;;6.93;;
2001;SDS011;1003;48.002;7.788;2023-03-08T07:01:05;15.23;;;7.60;;
2001;SDS011;1003;48.002;7.788;2023-03-08T07:03:33;13.23;;;7.53;;
2001;SDS011;1003;48.002;7.788;2023-03-08T07:06:02;13.73;;;7.80;;
2001;SDS011;1003;48.002;7.788;2023-03-08T07:08:33;12.30;;;7.73;;
2001;SDS011;1003;48.002;7.788;2023-03-08T07:11:02;14.63;;;8.07;;
2001;SDS011;1003;48.002;7.788;2023-03-08T07:13:31;13.50;;;7.73;;
2001;SDS011;1003;48.002;7.788;2023-03-08T07:16:03;14.43;;;8.10;;
2001;SDS011;1003;48.002;7.788;2023-03-08T07:18:32;15.17;;;7.73;;
2001;SDS011;1003;48.002;7.788;2023-03-08T07:20:59;15.00;;;7.97;;
2001;SDS011;1003;48.002;7.788;2023-03-08T07:23:26;14.40;;;7.83;;
2001;SDS011;1003;48.002;7.788;2023-03-08T07:25:53;18.43;;;9.30;;
2001;SDS011;1003;48.002;7.788;2023-03-08T07:28:22;13.77;;;7.80;;
2001;SDS011;1003;48.002;7.788;2023-03-08T07:30:50;16.50;;;7.70;;
2001;SDS011;1003;48.002;7.788;2023-03-08T07:33:18;15.77;;;7.53;;
2001;SDS011;1003;48.002;7.788;2023-03-08T07:35:46;11.63;;;6.80;;
2001;SDS011;1003;48.002;7.788;2023-03-08T07:38:14;16.37;;;8.63;;
2001;SDS011;1003;48.002;7.788;2023-03-08T07:40:41;12.53;;;7.03;;
2001;SDS011;1003;48.002;7.788;2023-03-08T07:43:08;16.97;;;7.33;;
2001;SDS011;1003;48.002;7.788;2023-03-08T07:45:37;16.13;;;8.00;;
2001;SDS011;1003;48.002;7.788;2023-03-08T07:48:05;11.57;;;6.60;;
2001;SDS011;1003;48.002;7.788;2023-03-08T07:50:33;12.00;;;6.43;;
2001;SDS011;1003;48.002;7.788;2023-03-08T07:53:00;11.63;;;6.17;;
2001;SDS011;1003;48.002;7.788;2023-03-08T07:55:28;11.47;;;5.97;;
2001;SDS011;1003;48.002;7.788;2023-03-08T07:57:55;10.40;;;5.03;;
2001;SDS011;1003;48.002;7.788;2023-03-08T08:00:23;6.33;;;3.93;;
2001;SDS011;1003;48.002;7.788;2023-03-08T08:02:52;5.30;;;3.53;;
2001;SDS011;1003;48.002;7.788;2023-03-08T08:05:19;6.93;;;4.00;;
2001;SDS011;1003;48.002;7.788;2023-03-08T08:07:46;4.33;;;3.20;;
2001;SDS011;1003;48.002;7.788;2023-03-08T08:10:14;3.50;;;2.33;;
2001;SDS011;1003;48.002;7.788;2023-03-08T08:12:42;3.10;;;2.30;;
2001;SDS011;1003;48.002;7.788;2023-03-08T08:15:09;3.37;;;2.00;;
2001;SDS011;1003;48.002;7.788;2023-03-08T08:17:37;3.83;;;2.20;;
2001;SDS011;1003;48.002;7.788;2023-03-08T08:20:06;2.00;;;1.60;;
2001;SDS011;1003;48.002;7.788;2023-03-08T08:22:34;1.30;;;1.20;;
2001;SDS011;1003;48.002;7.788;2023-03-08T08:25:02;1.63;;;1.30;;
2001;SDS011;1003;48.002;7.788;2023-03-08T08:27:30;3.67;;;1.43;;
2001;SDS011;1003;48.002;7.788;2023-03-08T08:29:57;1.40;;;1.30;;
2001;SDS011;1003;48.002;7.788;2023-03-08T08:32:24;2.43;;;1.30;;
2001;SDS011;1003;48.002;7.788;2023-03-08T08:34:51;2.00;;;1.23;;
2001;SDS011;1003;48.002;7.788;2023-03-08T08:37:20;1.57;;;1.30;;
2001;SDS011;1003;48.002;7.788;2023-03-08T08:39:47;1.17;;;1.07;;
2001;SDS011;1003;48.002;7.788;2023-03-08T08:42:14;1.80;;;1.60;;
2001;SDS011;1003;48.002;7.788;2023-03-08T08:44:41;1.60;;;1.40;;
2001;SDS011;1003;48.002;7.788;2023-03-08T08:47:08;2.27;;;1.70;;
2001;SDS011;1003;48.002;7.788;2023-03-08T08:49:35;2.13;;;1.50;;
2001;SDS011;1003;48.002;7.788;2023-03-08T08:52:02;1.47;;;1.37;;
2001;SDS011;1003;48.002;7.788;2023-03-08T08:54:31;1.67;;;1.20;;
2001;SDS011;1003;48.002;7.788;2023-03-08T08:56:58;1.90;;;1.47;;
2001;SDS011;1003;48.002;7.788;2023-03-08T08:59:25;2.40;;;1.40;;
2001;SDS011;1003;48.002;7.788;2023-03-08T09:01:52;3.17;;;1.63;;
2001;SDS011;1003;48.002;7.788;2023-03-08T09:04:20;2.93;;;1.40;;
2001;SDS011;1003;48.002;7.788;2023-03-08T09:06:47;2.00;;;1.80;;
2001;SDS011;1003;48.002;7.788;2023-03-08T09:09:14;1.70;;;1.60;;
2001;SDS011;1003;48.002;7.788;2023-03-08T09:11:44;3.03;;;1.90;;
2001;SDS011;1003;48.002;7.788;2023-03-08T09:14:12;1.97;;;1.60;;
2001;SDS011;1003;48.002;7.788;2023-03-08T09:16:40;3.00;;;1.80;;
2001;SDS011;1003;48.002;7.788;2023-03-08T09:19:07;2.17;;;1.77;;
2001;SDS011;1003;48.002;7.788;2023-03-08T09:21:34;2.53;;;1.90;;
2001;SDS011;1003;48.002;7.788;2023-03-08T09:24:02;2.57;;;1.90;;
2001;SDS011;1003;48.002;7.788;2023-03-08T09:26:33;2.93;;;2.27;;
2001;SDS011;1003;48.002;7.788;2023-03-08T09:29:02;3.43;;;2.13;;
2001;SDS011;1003;48.002;7.788;2023-03-08T09:31:31;4.37;;;2.47;;
2001;SDS011;1003;48.002;7.788;2023-03-08T09:34:00;3.20;;;2.40;;
2001;SDS011;1003;48.002;7.788;2023-03-08T09:36:32;4.27;;;2.50;;
2001;SDS011;1003;48.002;7.788;2023-03-08T09:39:00;3.80;;;2.40;;
2001;SDS011;1003;48.002;7.788;2023-03-08T09:41:33;3.90;;;2.67;;
2001;SDS011;1003;48.002;7.788;2023-03-08T09:47:15;4.43;;;2.50;;
2001;SDS011;1003;48.002;7.788;2023-03-08T09:49:54;2.97;;;2.30;;
2001;SDS011;1003;48.002;7.788;2023-03-08T09:52:29;3.00;;;2.13;;
2001;SDS011;1003;48.002;7.788;2023-03-08T09:55:03;4.03;;;2.50;;
2001;SDS011;1003;48.002;7.788;2023-03-08T09:57:43;3.53;;;2.40;;
2001;SDS011;1003;48.002;7.788;2023-03-08T10:00:19;3.93;;;2.87;;
2001;SDS011;1003;48.002;7.788;2023-03-08T10:02:53;4.83;;;2.67;;
2001;SDS011;1003;48.002;7.788;2023-03-08T10:05:40;3.20;;;2.23;;
2001;SDS011;1003;48.002;7.788;2023-03-08T10:08:15;4.10;;;2.37;;
2001;SDS011;1003;48.002;7.788;2023-03-08T10:10:51;4.97;;;2.20;;
2001;SDS011;1003;48.002;7.788;2023-03-08T10:13:27;3.43;;;2.20;;
2001;SDS011;1003;48.002;7.788;2023-03-08T10:16:04;4.37;;;2.57;;
2001;SDS011;1003;48.002;7.788;2023-03-08T10:18:42;3.77;;;2.20;;
2001;SDS011;1003;48.002;7.788;2023-03-08T10:21:15;3.00;;;2.20;;
2001;SDS011;1003;48.002;7.788;2023-03-08T10:23:46;3.47;;;2.10;;
2001;SDS011;1003;48.002;7.788;2023-03-08T10:26:23;4.90;;;2.60;;
2001;SDS011;1003;48.002;7.788;2023-03-08T10:28:51;3.80;;;2.50;;
2001;SDS011;1003;48.002;7.788;2023-03-08T10:31:21;3.20;;;2.00;;
2001;SDS011;1003;48.002;7.788;2023-03-08T10:33:52;4.27;;;1.93;;
2001;SDS011;1003;48.002;7.788;2023-03-08T10:36:28;4.20;;;2.20;;
2001;SDS011;1003;48.002;7.788;2023-03-08T10:38:56;4.83;;;2.40;;
2001;SDS011;1003;48.002;7.788;2023-03-08T10:41:27;3.97;;;2.10;;
2001;SDS011;1003;48.002;7.788;2023-03-08T10:43:57;2.93;;;2.20;;
2001;SDS011;1003;48.002;7.788;2023-03-08T10:46:27;2.43;;;2.13;;
2001;SDS011;1003;48.002;7.788;2023-03-08T10:49:05;4.10;;;2.50;;
2001;SDS011;1003;48.002;7.788;2023-03-08T10:51:34;4.23;;;2.50;;
2001;SDS011;1003;48.002;7.788;2023-03-08T10:54:02;3.90;;;2.43;;
2001;SDS011;1003;48.002;7.788;2023-03-08T10:56:33;2.80;;;2.40;;
2001;SDS011;1003;48.002;7.788;2023-03-08T10:59:03;2.90;;;2.23;;
2001;SDS011;1003;48.002;7.788;2023-03-08T11:01:48;4.63;;;2.60;;
2001;SDS011;1003;48.002;7.788;2023-03-08T11:04:18;4.47;;;2.83;;
2001;SDS011;1003;48.002;7.788;2023-03-08T11:06:47;4.50;;;3.67;;
2001;SDS011;1003;48.002;7.788;2023-03-08T11:09:19;3.70;;;2.27;;
2001;SDS011;1003;48.002;7.788;2023-03-08T11:11:50;4.30;;;2.70;;
2001;SDS011;1003;48.002;7.788;2023-03-08T11:14:17;3.43;;;2.43;;
2001;SDS011;1003;48.002;7.788;2023-03-08T11:16:50;3.63;;;2.50;;
2001;SDS011;1003;48.002;7.788;2023-03-08T11:19:37;3.50;;;2.23;;
2001;SDS011;1003;48.002;7.788;2023-03-08T11:22:21;3.07;;;2.20;;
2001;SDS011;1003;48.002;7.788;2023-03-08T11:25:10;2.73;;;2.17;;
2001;SDS011;1003;48.002;7.788;2023-03-08T11:27:48;3.87;;;2.17;;
2001;SDS011;1003;48.002;7.788;2023-03-08T11:30:32;2.87;;;2.20;;
2001;SDS011;1003;48.002;7.788;2023-03-08T11:33:20;2.87;;;2.10;;
2001;SDS011;1003;48.002;7.788;2023-03-08T11:36:04;3.07;;;1.90;;
2001;SDS011;1003;48.002;7.788;2023-03-08T11:38:37;2.20;;;1.90;;
2001;SDS011;1003;48.002;7.788;2023-03-08T11:41:10;1.90;;;1.73;;
2001;SDS011;1003;48.002;7.788;2023-03-08T11:43:54;3.40;;;2.00;;
2001;SDS011;1003;48.002;7.788;2023-03-08T11:46:49;3.37;;;1.60;;
2001;SDS011;1003;48.002;7.788;2023-03-08T11:49:47;2.57;;;1.63;;
2001;SDS011;1003;48.002;7.788;2023-03-08T11:52:31;1.93;;;1.50;;
2001;SDS011;1003;48.002;7.788;2023-03-08T11:55:15;1.50;;;1.40;;
2001;SDS011;1003;48.002;7.788;2023-03-08T11:58:02;1.60;;;1.50;;
2001;SDS011;1003;48.002;7.788;2023-03-08T12:00:40;1.87;;;1.50;;
2001;SDS011;1003;48.002;7.788;2023-03-08T12:03:12;1.50;;;1.13;;
2001;SDS011;1003;48.002;7.788;2023-03-08T12:05:45;1.23;;;1.13;;
2001;SDS011;1003;48.002;7.788;2023-03-08T12:08:19;1.40;;;1.23;;
2001;SDS011;1003;48.002;7.788;2023-03-08T12:10:53;1.37;;;1.03;;
2001;SDS011;1003;48.002;7.788;2023-03-08T12:13:27;1.20;;;1.10;;
2001;SDS011;1003;48.002;7.788;2023-03-08T12:16:01;2.00;;;1.20;;
2001;SDS011;1003;48.002;7.788;2023-03-08T12:18:39;1.17;;;0.90;;
2001;SDS011;1003;48.002;7.788;2023-03-08T12:21:15;0.83;;;0.77;;
2001;SDS011;1003;48.002;7.788;2023-03-08T12:23:55;2.03;;;1.00;;
2001;SDS011;1003;48.002;7.788;2023-03-08T12:26:44;0.97;;;0.87;;
2001;SDS011;1003;48.002;7.788;2023-03-08T12:29:20;1.13;;;0.90;;
2001;SDS011;1003;48.002;7.788;2023-03-08T12:31:55;1.80;;;1.00;;
2001;SDS011;1003;48.002;7.788;2023-03-08T12:34:25;1.40;;;0.73;;
2001;SDS011;1003;48.002;7.788;2023-03-08T12:36:56;0.73;;;0.43;;
2001;SDS011;1003;48.002;7.788;2023-03-08T12:39:25;3.50;;;1.33;;
2001;SDS011;1003;48.002;7.788;2023-03-08T12:41:56;0.73;;;0.50;;
2001;SDS011;1003;48.002;7.788;2023-03-08T12:44:39;1.60;;;0.60;;
2001;SDS011;1003;48.002;7.788;2023-03-08T12:47:17;0.50;;;0.50;;
2001;SDS011;1003;48.002;7.788;2023-03-08T12:49:49;1.00;;;0.50;;
2001;SDS011;1003;48.002;7.788;2023-03-08T12:52:25;0.50;;;0.50;;
2001;SDS011;1003;48.002;7.788;2023-03-08T12:55:00;0.30;;;0.30;;
2001;SDS011;1003;48.002;7.788;2023-03-08T12:57:34;0.33;;;0.33;;
2001;SDS011;1003;48.002;7.788;2023-03-08T13:00:19;0.90;;;0.67;;
2001;SDS011;1003;48.002;7.788;2023-03-08T13:03:00;0.90;;;0.77;;
2001;SDS011;1003;48.002;7.788;2023-03-08T13:05:31;2.90;;;0.60;;
2001;SDS011;1003;48.002;7.788;2023-03-08T13:08:04;1.47;;;0.60;;
2001;SDS011;1003;48.002;7.788;2023-03-08T13:10:56;0.60;;;0.60;;
2001;SDS011;1003;48.002;7.788;2023-03-08T13:13:32;0.60;;;0.60;;
2001;SDS011;1003;48.002;7.788;2023-03-08T13:16:27;0.50;;;0.47;;
2001;SDS011;1003;48.002;7.788;2023-03-08T13:19:05;0.77;;;0.60;;
2001;SDS011;1003;48.002;7.788;2023-03-08T13:21:46;1.90;;;0.73;;
2001;SDS011;1003;48.002;7.788;2023-03-08T13:24:23;0.83;;;0.40;;
2001;SDS011;1003;48.002;7.788;2023-03-08T13:27:08;1.67;;;0.60;;
2001;SDS011;1003;48.002;7.788;2023-03-08T13:30:13;0.50;;;0.50;;
2001;SDS011;1003;48.002;7.788;2023-03-08T13:32:49;0.50;;;0.50;;
2001;SDS011;1003;48.002;7.788;2023-03-08T13:35:17;1.83;;;0.50;;
2001;SDS011;1003;48.002;7.788;2023-03-08T13:37:50;0.60;;;0.60;;
2001;SDS011;1003;48.002;7.788;2023-03-08T13:40:22;1.27;;;0.70;;
2001;SDS011;1003;48.002;7.788;2023-03-08T13:42:53;0.67;;;0.53;;
2001;SDS011;1003;48.002;7.788;2023-03-08T13:45:23;0.67;;;0.33;;
2001;SDS011;1003;48.002;7.788;2023-03-08T13:47:51;0.40;;;0.40;;
2001;SDS011;1003;48.002;7.788;2023-03-08T13:50:23;1.17;;;0.73;;
2001;SDS011;1003;48.002;7.788;2023-03-08T13:52:55;0.77;;;0.70;;
2001;SDS011;1003;48.002;7.788;2023-03-08T13:55:29;0.80;;;0.67;;
2001;SDS011;1003;48.002;7.788;2023-03-08T13:58:00;1.37;;;0.90;;
2001;SDS011;1003;48.002;7.788;2023-03-08T14:00:29;0.73;;;0.60;;
2001;SDS011;1003;48.002;7.788;2023-03-08T14:02:58;1.30;;;0.83;;
2001;SDS011;1003;48.002;7.788;2023-03-08T14:05:30;1.90;;;1.07;;
2001;SDS011;1003;48.002;7.788;2023-03-08T14:08:06;1.67;;;0.90;;
2001;SDS011;1003;48.002;7.788;2023-03-08T14:10:46;0.60;;;0.60;;
2001;SDS011;1003;48.002;7.788;2023-03-08T14:13:18;0.60;;;0.60;;
2001;SDS011;1003;48.002;7.788;2023-03-08T14:15:52;2.67;;;0.90;;
2001;SDS011;1003;48.002;7.788;2023-03-08T14:18:22;4.70;;;2.00;;
2001;SDS011;1003;48.002;7.788;2023-03-08T14:20:59;2.30;;;0.60;;
2001;SDS011;1003;48.002;7.788;2023-03-08T14:23:30;1.07;;;0.70;;
2001;SDS011;1003;48.002;7.788;2023-03-08T14:26:06;2.03;;;1.13;;
2001;SDS011;1003;48.002;7.788;2023-03-08T14:29:01;0.77;;;0.67;;
2001;SDS011;1003;48.002;7.788;2023-03-08T14:31:37;2.17;;;0.60;;
2001;SDS011;1003;48.002;7.788;2023-03-08T14:34:15;0.57;;;0.57;;
2001;SDS011;1003;48.002;7.788;2023-03-08T14:36:47;0.80;;;0.60;;
2001;SDS011;1003;48.002;7.788;2023-03-08T14:39:21;0.77;;;0.67;;
2001;SDS011;1003;48.002;7.788;2023-03-08T14:41:53;0.60;;;0.60;;
2001;SDS011;1003;48.002;7.788;2023-03-08T14:44:21;0.70;;;0.60;;
2001;SDS011;1003;48.002;7.788;2023-03-08T14:46:52;0.60;;;0.60;;
2001;SDS011;1003;48.002;7.788;2023-03-08T14:49:24;0.83;;;0.63;;
2001;SDS011;1003;48.002;7.788;2023-03-08T14:51:53;0.60;;;0.50;;
2001;SDS011;1003;48.002;7.788;2023-03-08T14:54:28;0.60;;;0.60;;
2001;SDS011;1003;48.002;7.788;2023-03-08T14:57:01;0.50;;;0.50;;
2001;SDS011;1003;48.002;7.788;2023-03-08T14:59:42;1.57;;;0.60;;
2001;SDS011;1003;48.002;7.788;2023-03-08T15:02:11;1.10;;;0.63;;
2001;SDS011;1003;48.002;7.788;2023-03-08T15:04:41;2.43;;;0.70;;
2001;SDS011;1003;48.002;7.788;2023-03-08T15:07:13;1.80;;;0.70;;
2001;SDS011;1003;48.002;7.788;2023-03-08T15:09:44;2.53;;;0.90;;
2001;SDS011;1003;48.002;7.788;2023-03-08T15:12:14;2.00;;;0.70;;
2001;SDS011;1003;48.002;7.788;2023-03-08T15:14:41;1.10;;;1.00;;
2001;SDS011;1003;48.002;7.788;2023-03-08T15:17:09;1.93;;;0.87;;
2001;SDS011;1003;48.002;7.788;2023-03-08T15:19:36;1.03;;;0.80;;
2001;SDS011;1003;48.002;7.788;2023-03-08T15:22:03;0.70;;;0.70;;
2001;SDS011;1003;48.002;7.788;2023-03-08T15:24:31;1.03;;;0.60;;
2001;SDS011;1003;48.002;7.788;2023-03-08T15:26:58;1.53;;;1.10;;
2001;SDS011;1003;48.002;7.788;2023-03-08T15:29:28;1.60;;;0.90;;
2001;SDS011;1003;48.002;7.788;2023-03-08T15:31:57;1.90;;;0.87;;
2001;SDS011;1003;48.002;7.788;2023-03-08T15:34:25;1.37;;;0.83;;
2001;SDS011;1003;48.002;7.788;2023-03-08T15:36:52;1.10;;;0.63;;
2001;SDS011;1003;48.002;7.788;2023-03-08T15:39:20;0.70;;;0.70;;
2001;SDS011;1003;48.002;7.788;2023-03-08T15:41:47;0.70;;;0.63;;
2001;SDS011;1003;48.002;7.788;2023-03-08T15:44:14;1.20;;;0.90;;
2001;SDS011;1003;48.002;7.788;2023-03-08T15:46:42;0.80;;;0.80;;
2001;SDS011;1003;48.002;7.788;2023-03-08T15:49:09;1.00;;;0.80;;